createdAt,value
2018-09-13T00:03:46.625Z,9.81
2018-09-13T00:09:41.602Z,8.03
2018-09-13T00:15:36.656Z,7.44
2018-09-13T00:21:31.605Z,13.97
2018-09-13T00:27:26.616Z,7.12
2018-09-13T00:33:21.653Z,8.7
2018-09-13T00:39:16.610Z,6.54
2018-09-13T00:45:11.622Z,7.03
2018-09-13T00:51:06.637Z,8
2018-09-13T00:57:01.661Z,6.97
2018-09-13T01:02:56.648Z,6.65
2018-09-13T01:08:51.708Z,8.04
2018-09-13T01:14:46.690Z,10.88
2018-09-13T01:20:41.701Z,8.6
2018-09-13T01:26:36.656Z,7.92
2018-09-13T01:32:31.662Z,8.97
2018-09-13T01:38:26.677Z,13.12
2018-09-13T01:44:21.738Z,6.79
2018-09-13T01:50:16.666Z,6.66
2018-09-13T01:56:11.743Z,8.52
2018-09-13T02:02:06.671Z,7.36
2018-09-13T02:08:01.747Z,9.34
2018-09-13T02:13:56.723Z,7.95
2018-09-13T02:19:51.701Z,9.55
2018-09-13T02:25:46.708Z,8.03
2018-09-13T02:31:41.729Z,16.11
2018-09-13T02:37:36.729Z,10.36
2018-09-13T02:43:31.735Z,7.31
2018-09-13T02:49:26.745Z,10.3
2018-09-13T02:55:21.731Z,7.31
2018-09-13T03:01:16.743Z,8.74
2018-09-13T03:07:11.726Z,8.07
2018-09-13T03:13:06.732Z,9.88
2018-09-13T03:19:01.784Z,7.98
2018-09-13T03:24:56.742Z,9.22
2018-09-13T03:30:51.802Z,12.02
2018-09-13T03:36:46.742Z,8.63
2018-09-13T03:42:41.758Z,6.86
2018-09-13T03:48:36.792Z,7.59
2018-09-13T03:54:31.777Z,8.01
2018-09-13T04:00:26.762Z,6.98
2018-09-13T04:06:21.803Z,8.3
2018-09-13T04:12:16.786Z,8.2
2018-09-13T04:18:11.787Z,7.97
2018-09-13T04:24:06.790Z,8.91
2018-09-13T04:30:01.926Z,9.2
2018-09-13T04:35:56.912Z,9.83
2018-09-13T04:41:51.811Z,7.24
2018-09-13T04:47:46.816Z,7.4
2018-09-13T04:53:41.819Z,13.04
2018-09-13T04:59:36.828Z,11.14
2018-09-13T05:05:31.820Z,10.45
2018-09-13T05:11:26.828Z,11
2018-09-13T05:17:21.855Z,16.77
2018-09-13T05:23:16.836Z,13.48
2018-09-13T05:29:11.848Z,22.67
2018-09-13T05:35:06.849Z,13.86
2018-09-13T05:41:01.844Z,11.63
2018-09-13T05:46:56.845Z,12.74
2018-09-13T05:52:51.873Z,9.41
2018-09-13T05:58:46.876Z,9.94
2018-09-13T06:04:41.868Z,12.4
2018-09-13T06:10:36.865Z,13.92
2018-09-13T06:16:31.881Z,17.03
2018-09-13T06:22:26.987Z,15.42
2018-09-13T06:28:21.901Z,13.13
2018-09-13T06:34:16.951Z,11.75
2018-09-13T06:40:11.901Z,12.63
2018-09-13T06:46:06.890Z,10.12
2018-09-13T06:52:01.937Z,13.8
2018-09-13T06:57:56.919Z,12.26
2018-09-13T07:03:51.936Z,14.79
2018-09-13T07:09:46.930Z,11
2018-09-13T07:15:41.920Z,11.14
2018-09-13T07:21:36.920Z,8.45
2018-09-13T07:27:31.927Z,8.72
2018-09-13T07:33:26.921Z,12.1
2018-09-13T07:39:21.935Z,13.05
2018-09-13T07:45:16.984Z,11.75
2018-09-13T07:51:11.959Z,18.61
2018-09-13T07:57:07.551Z,8.67
2018-09-13T08:03:01.984Z,13.44
2018-09-13T08:08:56.998Z,16.54
2018-09-13T08:14:51.980Z,22.32
2018-09-13T08:20:46.999Z,14.74
2018-09-13T08:26:41.972Z,27.3
2018-09-13T08:32:36.995Z,20.24
2018-09-13T08:38:31.994Z,17.96
2018-09-13T08:44:27.005Z,16.73
2018-09-13T08:50:21.997Z,20.85
2018-09-13T08:56:16.992Z,41.19
2018-09-13T09:02:12.004Z,34.28
2018-09-13T09:08:07.104Z,16.95
2018-09-13T09:14:02.058Z,19.01
2018-09-13T09:19:57.025Z,19.62
2018-09-13T09:25:52.120Z,18.42
2018-09-13T09:31:47.025Z,10.74
2018-09-13T09:37:42.034Z,16.81
2018-09-13T09:43:37.053Z,15.7
2018-09-13T09:49:32.034Z,10.7
2018-09-13T09:55:27.028Z,14.01
2018-09-13T10:01:22.035Z,15.53
2018-09-13T10:07:17.116Z,11.87
2018-09-13T10:13:12.093Z,16.03
2018-09-13T10:19:07.057Z,12.07
2018-09-13T10:25:02.194Z,13.48
2018-09-13T10:30:57.074Z,14.57
2018-09-13T10:36:52.100Z,11.07
2018-09-13T10:42:47.078Z,8.16
2018-09-13T10:48:42.092Z,8.25
2018-09-13T10:54:37.111Z,9.21
2018-09-13T11:00:32.114Z,12.58
2018-09-13T11:06:27.116Z,8.5
2018-09-13T11:12:22.148Z,9.6
2018-09-13T11:18:17.114Z,8.81
2018-09-13T11:24:12.113Z,8.96
2018-09-13T11:30:07.155Z,8.02
2018-09-13T11:36:02.155Z,14.32
2018-09-13T11:41:57.200Z,8.97
2018-09-13T11:47:52.128Z,13.49
2018-09-13T11:53:47.139Z,9.68
2018-09-13T11:59:42.150Z,9.98
2018-09-13T12:05:37.794Z,7.84
2018-09-13T12:11:32.142Z,8.17
2018-09-13T12:17:27.154Z,8.27
2018-09-13T12:23:22.177Z,9.61
2018-09-13T12:29:17.296Z,13.81
2018-09-13T12:35:12.184Z,8.64
2018-09-13T12:41:07.198Z,9.25
2018-09-13T12:47:02.206Z,9.9
2018-09-13T12:52:57.239Z,9.26
2018-09-13T12:58:52.749Z,9.56
2018-09-13T13:04:47.215Z,12.07
2018-09-13T13:10:42.194Z,14.88
2018-09-13T13:16:37.233Z,16.74
2018-09-13T13:22:32.210Z,10.73
2018-09-13T13:28:27.227Z,12.52
2018-09-13T13:34:22.272Z,12.85
2018-09-13T13:40:17.224Z,12.71
2018-09-13T13:46:12.231Z,8.48
2018-09-13T13:52:07.245Z,7.01
2018-09-13T13:58:02.243Z,6.85
2018-09-13T14:03:57.265Z,6.4
2018-09-13T14:09:52.462Z,7.04
2018-09-13T14:15:47.253Z,6.57
2018-09-13T14:21:42.263Z,7.07
2018-09-13T14:27:37.272Z,10.33
2018-09-13T14:33:32.296Z,7.03
2018-09-13T14:39:27.293Z,9.08
2018-09-13T14:45:22.277Z,9.3
2018-09-13T14:51:17.297Z,9.51
2018-09-13T14:57:12.347Z,7.49
2018-09-13T15:03:07.301Z,13.18
2018-09-13T15:09:02.329Z,7.47
2018-09-13T15:14:57.344Z,10.07
2018-09-13T15:20:52.370Z,8.85
2018-09-13T15:26:47.374Z,15.77
2018-09-13T15:32:42.328Z,7.6
2018-09-13T15:38:37.400Z,11.48
2018-09-13T15:44:32.327Z,14.57
2018-09-13T15:50:27.372Z,11.6
2018-09-13T15:56:22.349Z,10.45
2018-09-13T16:02:17.359Z,11.87
2018-09-13T16:08:12.349Z,15.73
2018-09-13T16:14:07.366Z,10.82
2018-09-13T16:20:02.444Z,14.95
2018-09-13T16:25:57.429Z,12.31
2018-09-13T16:31:52.368Z,9.43
2018-09-13T16:37:47.383Z,12.3
2018-09-13T16:43:42.372Z,13.95
2018-09-13T16:49:37.389Z,12.97
2018-09-13T16:55:32.475Z,14.15
2018-09-13T17:01:27.391Z,11.85
2018-09-13T17:07:22.477Z,10.3
2018-09-13T17:13:17.396Z,11.48
2018-09-13T17:19:12.433Z,15.06
2018-09-13T17:25:07.436Z,11.26
2018-09-13T17:31:02.429Z,15.71
2018-09-13T17:36:57.505Z,18.7
2018-09-13T17:42:52.446Z,23.46
2018-09-13T17:48:47.512Z,12.82
2018-09-13T17:54:42.429Z,15.24
2018-09-13T18:00:37.475Z,17.15
2018-09-13T18:06:32.445Z,12.1
2018-09-13T18:12:27.491Z,16.99
2018-09-13T18:18:22.483Z,12.66
2018-09-13T18:24:17.453Z,15.13
2018-09-13T18:30:12.549Z,13.13
2018-09-13T18:36:07.470Z,10
2018-09-13T18:42:02.466Z,11.61
2018-09-13T18:47:57.491Z,16.19
2018-09-13T18:53:52.583Z,14.85
2018-09-13T18:59:47.501Z,12.34
2018-09-13T19:05:42.497Z,15.59
2018-09-13T19:11:37.586Z,16.94
2018-09-13T19:17:32.519Z,15.89
2018-09-13T19:23:27.548Z,14.95
2018-09-13T19:29:22.506Z,13.06
2018-09-13T19:35:17.549Z,13.4
2018-09-13T19:41:12.531Z,18.42
2018-09-13T19:47:07.546Z,13.57
2018-09-13T19:53:02.539Z,13.74
2018-09-13T19:58:57.536Z,12.32
2018-09-13T20:04:52.645Z,15.42
2018-09-13T20:10:47.549Z,12.96
2018-09-13T20:16:42.593Z,15.59
2018-09-13T20:22:37.547Z,19.86
2018-09-13T20:28:32.622Z,14.5
2018-09-13T20:34:27.556Z,14.98
2018-09-13T20:40:22.563Z,14.17
2018-09-13T20:46:17.584Z,12.28
2018-09-13T20:52:12.616Z,21.4
2018-09-13T20:58:07.587Z,14.96
2018-09-13T21:04:02.646Z,15.18
2018-09-13T21:09:57.618Z,16.19
2018-09-13T21:15:52.596Z,14.95
2018-09-13T21:21:47.601Z,16.77
2018-09-13T21:27:42.601Z,17.84
2018-09-13T21:33:37.608Z,14.77
2018-09-13T21:39:32.614Z,19.38
2018-09-13T21:45:27.615Z,15.5
2018-09-13T21:51:22.616Z,12.22
2018-09-13T21:57:17.653Z,15.9
2018-09-13T22:03:12.764Z,18.9
2018-09-13T22:09:07.640Z,21.19
2018-09-13T22:15:02.674Z,20.41
2018-09-13T22:20:57.643Z,17.02
2018-09-13T22:26:52.636Z,21.73
2018-09-13T22:32:47.672Z,18.06
2018-09-13T22:38:42.678Z,19.91
2018-09-13T22:44:37.692Z,22.65
2018-09-13T22:50:32.690Z,22.51
2018-09-13T22:56:27.663Z,15.27
2018-09-13T23:02:22.675Z,14.14
2018-09-13T23:08:17.712Z,15.3
2018-09-13T23:14:12.687Z,15.84
2018-09-13T23:20:07.752Z,22.09
2018-09-13T23:26:02.710Z,16.45
2018-09-13T23:31:57.748Z,15.92
2018-09-13T23:37:52.698Z,25.56
2018-09-13T23:43:47.712Z,16.62
2018-09-13T23:49:42.718Z,17.46
2018-09-13T23:55:37.711Z,19.97
